createdAt,value
2022-08-28T00:01:30.252Z,1.83
2022-08-28T00:04:01.354Z,1.92
2022-08-28T00:06:30.008Z,1.88
2022-08-28T00:08:59.184Z,1.90
2022-08-28T00:11:27.517Z,1.90
2022-08-28T00:13:56.722Z,1.80
2022-08-28T00:16:26.190Z,1.75
2022-08-28T00:18:56.837Z,1.92
2022-08-28T00:21:26.292Z,2.42
2022-08-28T00:23:54.834Z,2.17
2022-08-28T00:26:39.219Z,2.40
2022-08-28T00:29:09.490Z,1.92
2022-08-28T00:31:39.846Z,1.73
2022-08-28T00:34:12.438Z,1.98
2022-08-28T00:36:48.050Z,2.00
2022-08-28T00:39:17.628Z,2.10
2022-08-28T00:41:51.021Z,2.35
2022-08-28T00:44:28.335Z,2.30
2022-08-28T00:46:59.432Z,2.50
2022-08-28T00:49:31.903Z,2.60
2022-08-28T00:52:09.083Z,2.13
2022-08-28T00:54:59.383Z,2.50
2022-08-28T00:57:32.527Z,2.33
2022-08-28T01:00:03.479Z,2.63
2022-08-28T01:02:36.935Z,2.63
2022-08-28T01:05:09.861Z,2.50
2022-08-28T01:07:39.927Z,2.60
2022-08-28T01:10:22.642Z,2.42
2022-08-28T01:12:52.304Z,2.60
2022-08-28T01:15:25.087Z,2.40
2022-08-28T01:18:04.661Z,2.60
2022-08-28T01:20:44.472Z,2.20
2022-08-28T01:23:20.024Z,2.35
2022-08-28T01:25:50.069Z,2.78
2022-08-28T01:28:18.913Z,3.03
2022-08-28T01:30:49.187Z,3.60
2022-08-28T01:33:19.734Z,3.00
2022-08-28T01:35:56.583Z,3.03
2022-08-28T01:38:27.141Z,3.00
2022-08-28T01:40:59.887Z,3.10
2022-08-28T01:43:31.710Z,3.30
2022-08-28T01:46:03.285Z,3.20
2022-08-28T01:48:34.768Z,3.28
2022-08-28T01:51:03.593Z,2.90
2022-08-28T01:53:33.878Z,3.50
2022-08-28T01:56:09.398Z,3.20
2022-08-28T01:58:38.909Z,3.10
2022-08-28T02:01:12.069Z,3.45
2022-08-28T02:03:43.467Z,3.10
2022-08-28T02:06:12.978Z,2.97
2022-08-28T02:08:41.392Z,3.00
2022-08-28T02:11:12.581Z,3.03
2022-08-28T02:13:42.357Z,2.50
2022-08-28T02:16:12.836Z,2.42
2022-08-28T02:18:41.988Z,3.10
2022-08-28T02:21:11.718Z,2.63
2022-08-28T02:23:41.811Z,2.75
2022-08-28T02:26:13.620Z,2.75
2022-08-28T02:28:43.055Z,2.63
2022-08-28T02:31:13.305Z,2.80
2022-08-28T02:33:44.028Z,2.50
2022-08-28T02:36:14.717Z,3.10
2022-08-28T02:38:44.190Z,3.17
2022-08-28T02:41:14.807Z,2.90
2022-08-28T02:43:43.273Z,2.65
2022-08-28T02:46:12.028Z,2.58
2022-08-28T02:48:42.768Z,2.92
2022-08-28T02:51:13.748Z,2.72
2022-08-28T02:53:43.428Z,2.80
2022-08-28T02:56:15.341Z,2.83
2022-08-28T02:58:44.037Z,3.28
2022-08-28T03:01:14.743Z,2.80
2022-08-28T03:03:45.249Z,2.95
2022-08-28T03:06:14.657Z,3.95
2022-08-28T03:08:44.202Z,3.58
2022-08-28T03:11:15.425Z,4.00
2022-08-28T03:13:43.741Z,4.30
2022-08-28T03:16:12.875Z,3.80
2022-08-28T03:18:42.035Z,3.70
2022-08-28T03:21:11.643Z,3.70
2022-08-28T03:23:42.068Z,3.08
2022-08-28T03:26:12.969Z,3.03
2022-08-28T03:28:45.924Z,2.83
2022-08-28T03:31:18.273Z,3.20
2022-08-28T03:33:48.209Z,3.20
2022-08-28T03:36:19.477Z,2.83
2022-08-28T03:38:48.009Z,2.83
2022-08-28T03:41:19.668Z,2.65
2022-08-28T03:43:49.795Z,2.88
2022-08-28T03:46:25.228Z,2.63
2022-08-28T03:48:55.028Z,2.80
2022-08-28T03:51:29.276Z,2.60
2022-08-28T03:53:59.130Z,2.60
2022-08-28T03:56:36.617Z,2.90
2022-08-28T03:59:06.533Z,2.22
2022-08-28T04:01:35.233Z,2.58
2022-08-28T04:04:04.706Z,2.25
2022-08-28T04:06:33.388Z,2.67
2022-08-28T04:09:04.836Z,2.20
2022-08-28T04:11:38.123Z,2.53
2022-08-28T04:14:08.232Z,2.53
2022-08-28T04:16:37.941Z,2.40
2022-08-28T04:19:06.313Z,2.35
2022-08-28T04:21:34.980Z,2.60
2022-08-28T04:24:06.779Z,2.88
2022-08-28T04:26:38.190Z,2.78
2022-08-28T04:29:08.837Z,2.60
2022-08-28T04:31:37.477Z,2.60
2022-08-28T04:34:08.869Z,2.63
2022-08-28T04:36:37.954Z,2.90
2022-08-28T04:39:08.881Z,2.60
2022-08-28T04:41:38.924Z,2.92
2022-08-28T04:44:11.133Z,2.60
2022-08-28T04:46:39.920Z,2.80
2022-08-28T04:49:08.520Z,2.85
2022-08-28T04:51:41.842Z,2.90
2022-08-28T04:54:12.070Z,3.13
2022-08-28T04:56:43.629Z,2.97
2022-08-28T04:59:14.150Z,2.95
2022-08-28T05:01:43.934Z,2.80
2022-08-28T05:04:14.421Z,3.10
2022-08-28T05:06:46.639Z,2.72
2022-08-28T05:09:21.044Z,2.70
2022-08-28T05:11:50.538Z,3.15
2022-08-28T05:14:22.130Z,3.30
2022-08-28T05:16:53.258Z,3.25
2022-08-28T05:19:23.201Z,3.00
2022-08-28T05:21:52.269Z,2.95
2022-08-28T05:24:21.653Z,3.05
2022-08-28T05:26:50.288Z,2.97
2022-08-28T05:29:19.028Z,3.15
2022-08-28T05:31:49.201Z,3.22
2022-08-28T05:34:18.552Z,3.35
2022-08-28T05:36:47.179Z,3.15
2022-08-28T05:39:15.818Z,3.50
2022-08-28T05:41:46.875Z,3.17
2022-08-28T05:44:17.826Z,3.63
2022-08-28T05:46:49.105Z,3.50
2022-08-28T05:49:20.175Z,3.40
2022-08-28T05:51:49.424Z,3.17
2022-08-28T05:54:18.604Z,3.15
2022-08-28T05:56:47.739Z,3.03
2022-08-28T05:59:17.284Z,3.33
2022-08-28T06:01:48.171Z,3.08
2022-08-28T06:04:23.909Z,2.83
2022-08-28T06:06:53.215Z,3.08
2022-08-28T06:09:28.957Z,2.90
2022-08-28T06:12:00.223Z,2.70
2022-08-28T06:14:30.128Z,2.88
2022-08-28T06:16:59.859Z,3.00
2022-08-28T06:19:32.413Z,2.80
2022-08-28T06:22:07.010Z,2.80
2022-08-28T06:24:36.445Z,2.88
2022-08-28T06:27:04.940Z,2.80
2022-08-28T06:29:33.532Z,2.90
2022-08-28T06:32:04.778Z,2.60
2022-08-28T06:34:34.973Z,2.50
2022-08-28T06:37:03.525Z,2.70
2022-08-28T06:39:32.489Z,2.72
2022-08-28T06:42:01.927Z,2.53
2022-08-28T06:44:32.680Z,2.67
2022-08-28T06:47:01.473Z,2.38
2022-08-28T06:49:30.110Z,2.40
2022-08-28T06:52:00.377Z,2.47
2022-08-28T06:54:31.356Z,2.38
2022-08-28T06:57:01.204Z,2.58
2022-08-28T06:59:29.793Z,2.17
2022-08-28T07:01:59.700Z,2.30
2022-08-28T07:04:28.167Z,2.70
2022-08-28T07:06:56.703Z,2.70
2022-08-28T07:09:27.206Z,2.15
2022-08-28T07:12:03.872Z,2.15
2022-08-28T07:14:32.445Z,2.40
2022-08-28T07:17:00.938Z,2.20
2022-08-28T07:19:29.432Z,2.28
2022-08-28T07:21:58.036Z,2.50
2022-08-28T07:24:29.827Z,2.30
2022-08-28T07:26:58.464Z,2.60
2022-08-28T07:29:27.420Z,2.40
2022-08-28T07:31:59.192Z,1.80
2022-08-28T07:34:28.226Z,1.95
2022-08-28T07:36:58.381Z,2.00
2022-08-28T07:39:28.402Z,1.60
2022-08-28T07:41:58.485Z,1.98
2022-08-28T07:44:44.344Z,2.00
2022-08-28T07:47:13.181Z,1.80
2022-08-28T07:49:42.325Z,1.98
2022-08-28T07:52:12.180Z,1.92
2022-08-28T07:54:42.162Z,1.92
2022-08-28T07:57:11.790Z,1.80
2022-08-28T07:59:43.411Z,2.20
2022-08-28T08:02:12.331Z,2.10
2022-08-28T08:04:41.371Z,2.10
2022-08-28T08:07:09.894Z,2.20
2022-08-28T08:09:39.979Z,2.30
2022-08-28T08:12:12.801Z,2.15
2022-08-28T08:14:43.615Z,1.95
2022-08-28T08:17:13.231Z,2.00
2022-08-28T08:19:42.042Z,1.80
2022-08-28T08:22:10.675Z,2.05
2022-08-28T08:24:39.198Z,2.00
2022-08-28T08:27:08.466Z,2.05
2022-08-28T08:29:42.714Z,1.98
2022-08-28T08:32:12.925Z,2.03
2022-08-28T08:34:43.518Z,2.03
2022-08-28T08:37:14.119Z,1.63
2022-08-28T08:39:44.201Z,1.77
2022-08-28T08:42:24.047Z,2.10
2022-08-28T08:44:56.942Z,1.90
2022-08-28T08:47:37.651Z,1.80
2022-08-28T08:50:13.724Z,1.80
2022-08-28T08:52:53.846Z,1.80
2022-08-28T08:55:28.636Z,1.80
2022-08-28T08:58:10.994Z,1.92
2022-08-28T09:00:48.188Z,2.20
2022-08-28T09:03:27.767Z,1.80
2022-08-28T09:05:59.982Z,2.03
2022-08-28T09:08:35.475Z,2.05
2022-08-28T09:11:16.618Z,1.58
2022-08-28T09:13:54.577Z,1.70
2022-08-28T09:16:32.113Z,1.40
2022-08-28T09:19:02.722Z,1.42
2022-08-28T09:21:33.734Z,1.40
2022-08-28T09:24:11.072Z,1.42
2022-08-28T09:26:41.959Z,1.65
2022-08-28T09:29:19.541Z,1.50
2022-08-28T09:31:50.939Z,1.42
2022-08-28T09:34:36.678Z,1.60
2022-08-28T09:37:09.846Z,1.52
2022-08-28T09:39:46.659Z,1.38
2022-08-28T09:42:41.406Z,1.75
2022-08-28T09:45:18.889Z,1.45
2022-08-28T09:47:51.480Z,1.60
2022-08-28T09:50:33.313Z,1.63
2022-08-28T09:53:18.553Z,1.30
2022-08-28T09:55:58.420Z,1.50
2022-08-28T09:58:36.213Z,1.55
2022-08-28T10:01:16.937Z,1.70
2022-08-28T10:04:00.448Z,1.48
2022-08-28T10:06:33.983Z,1.40
2022-08-28T10:09:18.246Z,1.10
2022-08-28T10:11:56.424Z,1.10
2022-08-28T10:14:45.675Z,1.35
2022-08-28T10:17:26.766Z,1.27
2022-08-28T10:20:06.035Z,1.20
2022-08-28T10:22:44.933Z,1.30
2022-08-28T10:25:23.765Z,1.27
2022-08-28T10:28:17.188Z,1.20
2022-08-28T10:31:01.731Z,1.25
2022-08-28T10:33:55.137Z,1.35
2022-08-28T10:36:33.912Z,1.13
2022-08-28T10:39:15.748Z,1.35
2022-08-28T10:41:50.104Z,1.23
2022-08-28T10:44:24.644Z,1.30
2022-08-28T10:46:56.986Z,1.10
2022-08-28T10:49:30.290Z,1.40
2022-08-28T10:52:04.994Z,1.20
2022-08-28T10:54:41.108Z,1.30
2022-08-28T10:57:21.001Z,1.40
2022-08-28T10:59:53.937Z,1.10
2022-08-28T11:02:27.365Z,1.23
2022-08-28T11:04:58.820Z,1.10
2022-08-28T11:07:34.097Z,1.30
2022-08-28T11:10:20.004Z,1.40
2022-08-28T11:12:52.169Z,1.27
2022-08-28T11:15:53.682Z,1.25
2022-08-28T11:18:57.530Z,1.23
2022-08-28T11:21:29.051Z,1.42
2022-08-28T11:24:07.066Z,1.42
2022-08-28T11:26:42.793Z,1.38
2022-08-28T11:29:12.336Z,1.20
2022-08-28T11:31:43.557Z,1.13
2022-08-28T11:34:44.638Z,1.20
2022-08-28T11:37:40.721Z,1.00
2022-08-28T11:40:19.537Z,1.20
2022-08-28T11:42:49.863Z,1.13
2022-08-28T11:45:24.584Z,1.10
2022-08-28T11:47:57.971Z,1.00
2022-08-28T11:51:08.045Z,1.15
2022-08-28T11:53:54.637Z,1.13
2022-08-28T11:56:59.390Z,1.60
2022-08-28T12:00:14.048Z,1.25
2022-08-28T12:03:14.491Z,1.25
2022-08-28T12:05:50.574Z,1.00
2022-08-28T12:09:10.581Z,0.98
2022-08-28T12:11:54.623Z,1.10
2022-08-28T12:15:01.273Z,1.10
2022-08-28T12:17:54.518Z,1.20
2022-08-28T12:20:31.002Z,1.02
2022-08-28T12:23:04.321Z,0.90
2022-08-28T12:25:39.910Z,1.20
2022-08-28T12:28:21.281Z,1.27
2022-08-28T12:30:59.059Z,1.23
2022-08-28T12:33:42.859Z,1.10
2022-08-28T12:36:19.599Z,1.25
2022-08-28T12:38:53.192Z,1.33
2022-08-28T12:41:25.104Z,1.10
2022-08-28T12:43:57.466Z,1.10
2022-08-28T12:46:30.960Z,1.23
2022-08-28T12:49:03.581Z,1.13
2022-08-28T12:51:33.894Z,1.40
2022-08-28T12:54:05.477Z,1.00
2022-08-28T12:56:38.120Z,1.10
2022-08-28T12:59:27.233Z,1.40
2022-08-28T13:02:02.693Z,1.10
2022-08-28T13:04:38.957Z,0.90
2022-08-28T13:07:12.918Z,1.20
2022-08-28T13:09:49.833Z,1.10
2022-08-28T13:12:23.629Z,1.20
2022-08-28T13:15:07.775Z,1.00
2022-08-28T13:17:49.234Z,1.30
2022-08-28T13:20:32.389Z,1.00
2022-08-28T13:23:01.949Z,1.10
2022-08-28T13:25:33.794Z,0.93
2022-08-28T13:28:05.009Z,1.23
2022-08-28T13:30:35.791Z,0.95
2022-08-28T13:33:20.479Z,1.30
2022-08-28T13:35:51.464Z,1.23
2022-08-28T13:38:26.930Z,1.10
2022-08-28T13:41:01.806Z,1.58
2022-08-28T13:43:50.974Z,2.22
2022-08-28T13:46:25.772Z,1.63
2022-08-28T13:48:54.357Z,1.02
2022-08-28T13:51:26.645Z,1.30
2022-08-28T13:54:00.623Z,1.40
2022-08-28T13:56:37.903Z,1.17
2022-08-28T13:59:13.281Z,1.25
2022-08-28T14:01:59.860Z,1.27
2022-08-28T14:04:28.606Z,1.02
2022-08-28T14:06:58.786Z,1.10
2022-08-28T14:09:28.153Z,1.00
2022-08-28T14:11:57.576Z,1.00
2022-08-28T14:14:26.194Z,1.00
2022-08-28T14:16:56.883Z,1.00
2022-08-28T14:19:26.357Z,0.90
2022-08-28T14:21:55.466Z,1.30
2022-08-28T14:24:27.261Z,1.00
2022-08-28T14:26:55.993Z,1.00
2022-08-28T14:29:24.488Z,1.27
2022-08-28T14:31:53.480Z,1.00
2022-08-28T14:34:24.037Z,1.08
2022-08-28T14:36:55.672Z,0.88
2022-08-28T14:39:28.617Z,1.10
2022-08-28T14:41:57.966Z,1.02
2022-08-28T14:44:27.113Z,1.00
2022-08-28T14:46:56.946Z,0.80
2022-08-28T14:49:27.126Z,1.00
2022-08-28T14:51:57.706Z,0.95
2022-08-28T14:54:28.068Z,0.90
2022-08-28T14:56:57.049Z,0.85
2022-08-28T14:59:31.066Z,0.90
2022-08-28T15:02:02.556Z,0.80
2022-08-28T15:04:35.593Z,0.90
2022-08-28T15:07:06.897Z,1.00
2022-08-28T15:09:39.903Z,0.80
2022-08-28T15:12:09.156Z,0.93
2022-08-28T15:14:38.332Z,1.02
2022-08-28T15:17:08.703Z,1.10
2022-08-28T15:19:37.142Z,1.00
2022-08-28T15:22:05.827Z,1.08
2022-08-28T15:24:34.922Z,1.02
2022-08-28T15:27:07.592Z,0.90
2022-08-28T15:29:36.020Z,0.98
2022-08-28T15:32:10.246Z,1.02
2022-08-28T15:34:44.623Z,0.90
2022-08-28T15:37:14.030Z,1.10
2022-08-28T15:40:04.528Z,1.13
2022-08-28T15:42:34.644Z,1.08
2022-08-28T15:45:03.241Z,1.20
2022-08-28T15:47:31.801Z,0.88
2022-08-28T15:50:01.613Z,1.20
2022-08-28T15:52:34.192Z,1.20
2022-08-28T15:55:02.921Z,1.02
2022-08-28T15:57:31.663Z,1.13
2022-08-28T16:00:02.298Z,1.20
2022-08-28T16:02:31.959Z,1.23
2022-08-28T16:05:01.593Z,1.10
2022-08-28T16:07:30.614Z,1.10
2022-08-28T16:09:59.330Z,1.20
2022-08-28T16:12:27.970Z,1.00
2022-08-28T16:14:56.401Z,1.00
2022-08-28T16:17:26.432Z,0.90
2022-08-28T16:19:55.127Z,1.10
2022-08-28T16:22:25.076Z,1.00
2022-08-28T16:24:54.721Z,1.40
2022-08-28T16:27:25.615Z,1.27
2022-08-28T16:29:54.455Z,1.45
2022-08-28T16:32:23.410Z,1.20
2022-08-28T16:34:56.648Z,1.33
2022-08-28T16:37:37.751Z,1.50
2022-08-28T16:40:11.036Z,1.23
2022-08-28T16:42:41.841Z,1.40
2022-08-28T16:45:20.119Z,1.13
2022-08-28T16:47:50.591Z,1.30
2022-08-28T16:50:21.077Z,1.30
2022-08-28T16:52:50.745Z,1.27
2022-08-28T16:55:21.213Z,1.92
2022-08-28T16:57:49.842Z,1.13
2022-08-28T17:00:20.534Z,1.00
2022-08-28T17:02:56.519Z,1.15
2022-08-28T17:05:26.727Z,1.02
2022-08-28T17:07:56.356Z,1.10
2022-08-28T17:10:26.202Z,1.17
2022-08-28T17:12:54.885Z,1.00
2022-08-28T17:15:28.404Z,1.05
2022-08-28T17:17:58.196Z,1.10
2022-08-28T17:20:47.938Z,1.00
2022-08-28T17:23:16.576Z,1.15
2022-08-28T17:25:45.182Z,1.10
2022-08-28T17:28:14.773Z,1.20
2022-08-28T17:30:47.114Z,0.95
2022-08-28T17:33:15.592Z,1.02
2022-08-28T17:35:46.644Z,1.20
2022-08-28T17:38:20.786Z,1.45
2022-08-28T17:40:49.899Z,2.17
2022-08-28T17:43:18.983Z,1.60
2022-08-28T17:45:47.909Z,1.80
2022-08-28T17:48:18.702Z,2.00
2022-08-28T17:50:50.767Z,1.60
2022-08-28T17:53:22.602Z,1.50
2022-08-28T17:55:54.574Z,1.90
2022-08-28T17:58:23.157Z,1.40
2022-08-28T18:00:53.344Z,1.20
2022-08-28T18:03:23.710Z,1.20
2022-08-28T18:05:54.759Z,1.48
2022-08-28T18:08:24.058Z,1.35
2022-08-28T18:11:04.252Z,1.67
2022-08-28T18:13:33.894Z,2.00
2022-08-28T18:16:02.963Z,1.50
2022-08-28T18:18:36.469Z,1.52
2022-08-28T18:21:07.458Z,1.30
2022-08-28T18:23:36.299Z,1.40
2022-08-28T18:26:06.355Z,1.70
2022-08-28T18:28:36.053Z,1.42
2022-08-28T18:31:06.489Z,1.58
2022-08-28T18:33:37.003Z,1.70
2022-08-28T18:36:11.469Z,1.88
2022-08-28T18:38:41.054Z,1.60
2022-08-28T18:41:11.246Z,2.13
2022-08-28T18:43:41.216Z,1.50
2022-08-28T18:46:17.185Z,1.90
2022-08-28T18:48:47.143Z,1.70
2022-08-28T18:51:21.678Z,2.10
2022-08-28T18:53:51.174Z,2.05
2022-08-28T18:56:20.477Z,2.08
2022-08-28T18:58:51.639Z,2.00
2022-08-28T19:01:20.591Z,1.70
2022-08-28T19:03:50.191Z,1.98
2022-08-28T19:06:25.331Z,2.05
2022-08-28T19:08:53.888Z,2.40
2022-08-28T19:11:22.880Z,2.80
2022-08-28T19:13:51.605Z,1.92
2022-08-28T19:16:22.528Z,1.90
2022-08-28T19:18:53.190Z,1.85
2022-08-28T19:21:23.364Z,2.22
2022-08-28T19:23:55.966Z,2.25
2022-08-28T19:26:25.888Z,2.30
2022-08-28T19:28:55.382Z,1.90
2022-08-28T19:31:25.519Z,2.45
2022-08-28T19:33:55.814Z,2.33
2022-08-28T19:36:30.161Z,2.25
2022-08-28T19:38:58.608Z,2.92
2022-08-28T19:41:28.324Z,2.65
2022-08-28T19:43:57.789Z,2.53
2022-08-28T19:46:26.764Z,3.08
2022-08-28T19:48:57.361Z,2.65
2022-08-28T19:51:27.871Z,3.17
2022-08-28T19:53:58.899Z,2.60
2022-08-28T19:56:30.394Z,2.67
2022-08-28T19:59:01.954Z,3.15
2022-08-28T20:01:33.075Z,2.67
2022-08-28T20:04:02.336Z,2.97
2022-08-28T20:06:35.098Z,3.22
2022-08-28T20:09:04.425Z,3.50
2022-08-28T20:11:33.582Z,3.10
2022-08-28T20:14:07.976Z,3.22
2022-08-28T20:16:41.734Z,3.47
2022-08-28T20:19:12.320Z,2.97
2022-08-28T20:21:45.731Z,2.92
2022-08-28T20:24:18.076Z,2.90
2022-08-28T20:26:46.719Z,2.80
2022-08-28T20:29:16.937Z,3.08
2022-08-28T20:31:48.232Z,2.78
2022-08-28T20:34:18.419Z,3.10
2022-08-28T20:36:48.974Z,3.08
2022-08-28T20:39:18.333Z,2.67
2022-08-28T20:41:47.533Z,3.17
2022-08-28T20:44:18.713Z,3.58
2022-08-28T20:46:51.481Z,3.90
2022-08-28T20:49:24.074Z,4.22
2022-08-28T20:51:57.904Z,3.80
2022-08-28T20:54:29.350Z,3.83
2022-08-28T20:56:59.625Z,3.90
2022-08-28T20:59:35.456Z,3.75
2022-08-28T21:02:11.846Z,3.70
2022-08-28T21:04:42.643Z,3.70
2022-08-28T21:07:13.478Z,3.72
2022-08-28T21:10:06.180Z,3.70
2022-08-28T21:12:31.152Z,3.45
2022-08-28T21:15:00.100Z,3.70
2022-08-28T21:17:30.751Z,3.72
2022-08-28T21:20:02.937Z,3.38
2022-08-28T21:22:36.022Z,3.80
2022-08-28T21:25:07.365Z,4.13
2022-08-28T21:27:36.771Z,4.65
2022-08-28T21:30:07.993Z,4.50
2022-08-28T21:32:42.577Z,4.60
2022-08-28T21:35:13.561Z,4.22
2022-08-28T21:37:45.582Z,4.47
2022-08-28T21:40:15.976Z,4.93
2022-08-28T21:42:47.869Z,3.88
2022-08-28T21:45:16.447Z,4.60
2022-08-28T21:47:44.900Z,4.78
2022-08-28T21:50:14.106Z,4.82
2022-08-28T21:52:42.799Z,4.38
2022-08-28T21:55:16.380Z,4.70
2022-08-28T21:57:45.288Z,4.35
2022-08-28T22:00:18.227Z,4.53
2022-08-28T22:02:50.422Z,4.45
2022-08-28T22:05:20.719Z,4.80
2022-08-28T22:07:51.250Z,4.50
2022-08-28T22:10:23.423Z,4.80
2022-08-28T22:12:53.119Z,5.38
2022-08-28T22:15:23.346Z,4.97
2022-08-28T22:17:53.134Z,5.28
2022-08-28T22:20:21.593Z,5.20
2022-08-28T22:23:07.759Z,5.68
2022-08-28T22:25:40.831Z,5.60
2022-08-28T22:28:10.754Z,5.85
2022-08-28T22:30:40.631Z,6.20
2022-08-28T22:33:10.955Z,6.10
2022-08-28T22:35:40.224Z,6.20
2022-08-28T22:38:11.608Z,6.07
2022-08-28T22:40:41.858Z,6.03
2022-08-28T22:43:10.589Z,6.28
2022-08-28T22:45:39.439Z,6.45
2022-08-28T22:48:08.338Z,6.13
2022-08-28T22:50:36.925Z,6.07
2022-08-28T22:53:06.730Z,6.00
2022-08-28T22:55:37.833Z,6.20
2022-08-28T22:58:11.335Z,6.28
2022-08-28T23:00:41.505Z,5.95
2022-08-28T23:03:13.201Z,5.68
2022-08-28T23:05:43.733Z,5.90
2022-08-28T23:08:12.247Z,5.55
2022-08-28T23:10:57.930Z,5.60
2022-08-28T23:13:31.044Z,5.82
2022-08-28T23:15:59.620Z,5.97
2022-08-28T23:18:46.309Z,5.90
2022-08-28T23:21:20.425Z,6.10
2022-08-28T23:23:50.193Z,5.55
2022-08-28T23:26:25.490Z,5.55
2022-08-28T23:28:56.575Z,5.63
2022-08-28T23:31:25.161Z,5.47
2022-08-28T23:34:03.331Z,5.18
2022-08-28T23:36:35.851Z,5.30
2022-08-28T23:39:12.066Z,5.40
2022-08-28T23:41:41.785Z,5.30
2022-08-28T23:44:11.924Z,5.45
2022-08-28T23:46:42.375Z,5.55
2022-08-28T23:49:11.855Z,5.75
2022-08-28T23:51:43.761Z,5.10
2022-08-28T23:54:13.374Z,5.38
2022-08-28T23:56:43.181Z,5.30
2022-08-28T23:59:14.412Z,5.10
